EWG9030 EDDL-EDDH
Flight info
| Callsign | EWG9030 |
|---|---|
| Flight time | 0h 38m |
| Altitude | 35000 |
| Route | MEVEL1Z MEVEL Y850 BASUM/N0432F340 Y850 PIXUR/N0430F330 Y850 MUBZI M105 RIBSO RIBSO3S |
| Aircraft | A319/M-SDE3FGHIRWY/LB1 |
Departure
| Time | 2026-05-05 06:17 |
|---|---|
| Airport | Düsseldorf Airport (EDDL) |
Arrival
| Time | 2026-05-05 06:55 |
|---|---|
| Airport | Hamburg Helmut Schmidt Airport (EDDH) |
| Time | Latitude | Longitude | Altitude | Speed | Heading |
|---|---|---|---|---|---|
| 2026-05-05 05:49 | 51.28031 | 6.76529 | 155 ft | 0 kts | 97° |
| 2026-05-05 06:06 | 51.28032 | 6.76528 | 155 ft | 1 kts | 97° |
| 2026-05-05 06:06 | 51.28033 | 6.76505 | 155 ft | 2 kts | 97° |
| 2026-05-05 06:06 | 51.28038 | 6.76482 | 155 ft | 2 kts | 124° |
| 2026-05-05 06:06 | 51.28048 | 6.76465 | 155 ft | 2 kts | 146° |
| 2026-05-05 06:07 | 51.28061 | 6.76453 | 155 ft | 2 kts | 146° |
| 2026-05-05 06:07 | 51.28073 | 6.76439 | 155 ft | 2 kts | 147° |
| 2026-05-05 06:07 | 51.28086 | 6.76426 | 155 ft | 2 kts | 147° |
| 2026-05-05 06:07 | 51.28099 | 6.76413 | 155 ft | 2 kts | 147° |
| 2026-05-05 06:08 | 51.28110 | 6.76398 | 155 ft | 2 kts | 131° |
| 2026-05-05 06:08 | 51.28120 | 6.76380 | 155 ft | 2 kts | 134° |
| 2026-05-05 06:08 | 51.28130 | 6.76362 | 155 ft | 2 kts | 123° |
| 2026-05-05 06:08 | 51.28137 | 6.76341 | 155 ft | 2 kts | 115° |
| 2026-05-05 06:09 | 51.28143 | 6.76319 | 155 ft | 2 kts | 115° |
| 2026-05-05 06:09 | 51.28149 | 6.76297 | 155 ft | 2 kts | 105° |
| 2026-05-05 06:09 | 51.28151 | 6.76274 | 155 ft | 2 kts | 86° |
| 2026-05-05 06:09 | 51.28148 | 6.76251 | 155 ft | 2 kts | 67° |
| 2026-05-05 06:10 | 51.28140 | 6.76230 | 155 ft | 2 kts | 49° |
| 2026-05-05 06:10 | 51.28130 | 6.76211 | 155 ft | 2 kts | 54° |
| 2026-05-05 06:10 | 51.28122 | 6.76193 | 155 ft | 1 kts | 52° |
| 2026-05-05 06:10 | 51.28121 | 6.76192 | 155 ft | 0 kts | 52° |
| 2026-05-05 06:12 | 51.28123 | 6.76196 | 155 ft | 1 kts | 52° |
| 2026-05-05 06:12 | 51.28136 | 6.76221 | 155 ft | 4 kts | 50° |
| 2026-05-05 06:12 | 51.28183 | 6.76246 | 155 ft | 10 kts | 347° |
| 2026-05-05 06:12 | 51.28263 | 6.76299 | 155 ft | 16 kts | 51° |
| 2026-05-05 06:13 | 51.28341 | 6.76463 | 155 ft | 20 kts | 54° |
| 2026-05-05 06:13 | 51.28434 | 6.76656 | 155 ft | 22 kts | 53° |
| 2026-05-05 06:13 | 51.28529 | 6.76854 | 155 ft | 22 kts | 53° |
| 2026-05-05 06:13 | 51.28620 | 6.77049 | 155 ft | 22 kts | 53° |
| 2026-05-05 06:14 | 51.28713 | 6.77243 | 155 ft | 21 kts | 53° |
| 2026-05-05 06:14 | 51.28805 | 6.77436 | 155 ft | 21 kts | 53° |
| 2026-05-05 06:14 | 51.28894 | 6.77626 | 155 ft | 21 kts | 53° |
| 2026-05-05 06:14 | 51.28985 | 6.77815 | 155 ft | 21 kts | 53° |
| 2026-05-05 06:15 | 51.29076 | 6.78005 | 155 ft | 21 kts | 53° |
| 2026-05-05 06:15 | 51.29166 | 6.78192 | 155 ft | 17 kts | 52° |
| 2026-05-05 06:15 | 51.29246 | 6.78198 | 155 ft | 11 kts | 331° |
| 2026-05-05 06:15 | 51.29297 | 6.78145 | 155 ft | 8 kts | 323° |
| 2026-05-05 06:16 | 51.29316 | 6.78059 | 155 ft | 10 kts | 243° |
| 2026-05-05 06:16 | 51.29272 | 6.77949 | 155 ft | 13 kts | 233° |
| 2026-05-05 06:16 | 51.29175 | 6.77750 | 155 ft | 50 kts | 233° |
| 2026-05-05 06:16 | 51.28802 | 6.76957 | 155 ft | 124 kts | 232° |
| 2026-05-05 06:17 | 51.28159 | 6.75621 | 275 ft | 170 kts | 232° |
| 2026-05-05 06:17 | 51.27451 | 6.74147 | 1008 ft | 170 kts | 233° |
| 2026-05-05 06:17 | 51.26824 | 6.72609 | 1794 ft | 170 kts | 253° |
| 2026-05-05 06:17 | 51.26956 | 6.70794 | 2442 ft | 174 kts | 306° |
| 2026-05-05 06:18 | 51.27849 | 6.69431 | 2979 ft | 187 kts | 324° |
| 2026-05-05 06:18 | 51.29031 | 6.68453 | 3575 ft | 198 kts | 351° |
| 2026-05-05 06:18 | 51.30414 | 6.68525 | 4196 ft | 209 kts | 11° |
| 2026-05-05 06:18 | 51.31911 | 6.68824 | 4823 ft | 227 kts | 7° |
| 2026-05-05 06:19 | 51.33528 | 6.69035 | 5437 ft | 245 kts | 5° |
| 2026-05-05 06:19 | 51.35286 | 6.69228 | 6049 ft | 263 kts | 5° |
| 2026-05-05 06:19 | 51.37159 | 6.69423 | 6781 ft | 276 kts | 5° |
| 2026-05-05 06:19 | 51.39064 | 6.69577 | 7696 ft | 280 kts | 2° |
| 2026-05-05 06:20 | 51.41012 | 6.69607 | 8618 ft | 284 kts | 1° |
| 2026-05-05 06:20 | 51.42985 | 6.69615 | 9502 ft | 289 kts | 0° |
| 2026-05-05 06:20 | 51.45010 | 6.69616 | 10347 ft | 295 kts | 360° |
| 2026-05-05 06:20 | 51.47086 | 6.69615 | 10924 ft | 311 kts | 360° |
| 2026-05-05 06:21 | 51.49293 | 6.69618 | 11469 ft | 326 kts | 359° |
| 2026-05-05 06:21 | 51.51567 | 6.69621 | 12254 ft | 331 kts | 359° |
| 2026-05-05 06:21 | 51.53873 | 6.69625 | 13074 ft | 335 kts | 359° |
| 2026-05-05 06:21 | 51.56214 | 6.69625 | 13860 ft | 338 kts | 360° |
| 2026-05-05 06:22 | 51.58568 | 6.69629 | 14656 ft | 341 kts | 0° |
| 2026-05-05 06:22 | 51.60908 | 6.70089 | 15424 ft | 345 kts | 18° |
| 2026-05-05 06:22 | 51.62972 | 6.71961 | 16160 ft | 348 kts | 41° |
| 2026-05-05 06:22 | 51.64538 | 6.74915 | 16868 ft | 353 kts | 53° |
| 2026-05-05 06:23 | 51.65978 | 6.78132 | 17545 ft | 357 kts | 53° |
| 2026-05-05 06:23 | 51.67442 | 6.81395 | 18204 ft | 360 kts | 53° |
| 2026-05-05 06:23 | 51.68917 | 6.84647 | 18850 ft | 363 kts | 53° |
| 2026-05-05 06:23 | 51.70412 | 6.87923 | 19478 ft | 368 kts | 52° |
| 2026-05-05 06:24 | 51.71934 | 6.91243 | 20069 ft | 372 kts | 52° |
| 2026-05-05 06:24 | 51.73479 | 6.94616 | 20635 ft | 377 kts | 52° |
| 2026-05-05 06:24 | 51.75038 | 6.98022 | 21193 ft | 382 kts | 52° |
| 2026-05-05 06:24 | 51.76608 | 7.01458 | 21756 ft | 386 kts | 52° |
| 2026-05-05 06:25 | 51.78215 | 7.04982 | 22307 ft | 391 kts | 52° |
| 2026-05-05 06:25 | 51.79821 | 7.08507 | 22840 ft | 395 kts | 52° |
| 2026-05-05 06:25 | 51.81452 | 7.12094 | 23376 ft | 400 kts | 52° |
| 2026-05-05 06:25 | 51.83098 | 7.15721 | 23877 ft | 404 kts | 52° |
| 2026-05-05 06:26 | 51.84789 | 7.19360 | 24379 ft | 408 kts | 50° |
| 2026-05-05 06:26 | 51.86624 | 7.22879 | 24864 ft | 412 kts | 46° |
| 2026-05-05 06:26 | 51.88597 | 7.26291 | 25344 ft | 416 kts | 44° |
| 2026-05-05 06:26 | 51.90593 | 7.29656 | 25817 ft | 420 kts | 44° |
| 2026-05-05 06:27 | 51.92622 | 7.33064 | 26273 ft | 424 kts | 44° |
| 2026-05-05 06:27 | 51.96724 | 7.39987 | 27316 ft | 428 kts | 44° |
| 2026-05-05 06:27 | 51.98751 | 7.43423 | 27920 ft | 427 kts | 44° |
| 2026-05-05 06:28 | 52.00809 | 7.46922 | 28469 ft | 428 kts | 44° |
| 2026-05-05 06:28 | 52.02851 | 7.50395 | 28984 ft | 429 kts | 44° |
| 2026-05-05 06:28 | 52.04906 | 7.53898 | 29498 ft | 430 kts | 43° |
| 2026-05-05 06:28 | 52.06959 | 7.57402 | 29950 ft | 432 kts | 44° |
| 2026-05-05 06:29 | 52.09043 | 7.60963 | 30370 ft | 435 kts | 44° |
| 2026-05-05 06:29 | 52.11152 | 7.64544 | 30764 ft | 438 kts | 43° |
| 2026-05-05 06:29 | 52.13304 | 7.68124 | 30898 ft | 441 kts | 43° |
| 2026-05-05 06:30 | 52.17589 | 7.75243 | 30911 ft | 441 kts | 43° |
| 2026-05-05 06:30 | 52.21839 | 7.82447 | 30908 ft | 441 kts | 44° |
| 2026-05-05 06:31 | 52.26030 | 7.89630 | 30810 ft | 441 kts | 44° |
| 2026-05-05 06:31 | 52.28146 | 7.93262 | 30495 ft | 438 kts | 44° |
| 2026-05-05 06:31 | 52.30229 | 7.96840 | 30114 ft | 434 kts | 44° |
| 2026-05-05 06:31 | 52.32275 | 8.00357 | 29648 ft | 430 kts | 44° |
| 2026-05-05 06:32 | 52.34324 | 8.03884 | 29107 ft | 428 kts | 44° |
| 2026-05-05 06:32 | 52.36377 | 8.07421 | 28510 ft | 428 kts | 44° |
| 2026-05-05 06:32 | 52.38419 | 8.10945 | 27896 ft | 427 kts | 44° |
| 2026-05-05 06:32 | 52.40431 | 8.14419 | 27281 ft | 427 kts | 45° |
| 2026-05-05 06:33 | 52.42457 | 8.17927 | 26661 ft | 425 kts | 45° |
| 2026-05-05 06:33 | 52.44495 | 8.21460 | 26029 ft | 424 kts | 45° |
| 2026-05-05 06:33 | 52.46493 | 8.24929 | 25524 ft | 420 kts | 45° |
| 2026-05-05 06:33 | 52.48475 | 8.28376 | 25098 ft | 414 kts | 45° |
| 2026-05-05 06:34 | 52.50438 | 8.31798 | 24664 ft | 409 kts | 45° |
| 2026-05-05 06:34 | 52.52349 | 8.35132 | 24236 ft | 404 kts | 45° |
| 2026-05-05 06:34 | 52.54261 | 8.38470 | 23808 ft | 400 kts | 45° |
| 2026-05-05 06:34 | 52.56159 | 8.41786 | 23376 ft | 395 kts | 45° |
| 2026-05-05 06:35 | 52.58027 | 8.45051 | 22952 ft | 392 kts | 45° |
| 2026-05-05 06:35 | 52.59877 | 8.48292 | 22507 ft | 388 kts | 45° |
| 2026-05-05 06:35 | 52.61708 | 8.51505 | 22080 ft | 385 kts | 45° |
| 2026-05-05 06:35 | 52.63517 | 8.54684 | 21649 ft | 383 kts | 45° |
| 2026-05-05 06:36 | 52.65321 | 8.57859 | 21221 ft | 380 kts | 45° |
| 2026-05-05 06:36 | 52.67109 | 8.61008 | 20780 ft | 377 kts | 45° |
| 2026-05-05 06:36 | 52.68908 | 8.64183 | 20357 ft | 375 kts | 45° |
| 2026-05-05 06:36 | 52.70668 | 8.67293 | 19926 ft | 373 kts | 46° |
| 2026-05-05 06:37 | 52.72423 | 8.70398 | 19504 ft | 370 kts | 46° |
| 2026-05-05 06:37 | 52.74165 | 8.73483 | 19082 ft | 368 kts | 46° |
| 2026-05-05 06:37 | 52.75960 | 8.76499 | 18632 ft | 366 kts | 38° |
| 2026-05-05 06:37 | 52.78154 | 8.78458 | 18205 ft | 360 kts | 15° |
| 2026-05-05 06:38 | 52.80593 | 8.78983 | 17789 ft | 355 kts | 359° |
| 2026-05-05 06:38 | 52.83064 | 8.78931 | 17377 ft | 353 kts | 358° |
| 2026-05-05 06:38 | 52.85479 | 8.78858 | 16972 ft | 352 kts | 358° |
| 2026-05-05 06:38 | 52.87940 | 8.78804 | 16544 ft | 350 kts | 358° |
| 2026-05-05 06:39 | 52.90342 | 8.78772 | 16135 ft | 348 kts | 359° |
| 2026-05-05 06:39 | 52.92749 | 8.78749 | 15710 ft | 347 kts | 359° |
| 2026-05-05 06:39 | 52.95147 | 8.78757 | 15307 ft | 345 kts | 1° |
| 2026-05-05 06:39 | 52.97555 | 8.79014 | 14886 ft | 344 kts | 5° |
| 2026-05-05 06:40 | 52.99912 | 8.79495 | 14476 ft | 342 kts | 7° |
| 2026-05-05 06:40 | 53.02246 | 8.80056 | 14067 ft | 341 kts | 10° |
| 2026-05-05 06:40 | 53.04441 | 8.81439 | 13633 ft | 340 kts | 32° |
| 2026-05-05 06:40 | 53.06292 | 8.83861 | 13199 ft | 338 kts | 39° |
| 2026-05-05 06:41 | 53.08178 | 8.86151 | 12754 ft | 336 kts | 34° |
| 2026-05-05 06:41 | 53.10113 | 8.88308 | 12312 ft | 334 kts | 33° |
| 2026-05-05 06:41 | 53.12049 | 8.90434 | 11864 ft | 332 kts | 33° |
| 2026-05-05 06:41 | 53.13972 | 8.92548 | 11423 ft | 330 kts | 33° |
| 2026-05-05 06:42 | 53.15868 | 8.94640 | 10980 ft | 328 kts | 33° |
| 2026-05-05 06:42 | 53.17742 | 8.96714 | 10532 ft | 325 kts | 33° |
| 2026-05-05 06:42 | 53.19604 | 8.98785 | 10080 ft | 323 kts | 33° |
| 2026-05-05 06:42 | 53.21469 | 9.00867 | 9622 ft | 321 kts | 33° |
| 2026-05-05 06:43 | 53.23322 | 9.02943 | 9160 ft | 319 kts | 33° |
| 2026-05-05 06:43 | 53.25137 | 9.04976 | 8710 ft | 317 kts | 33° |
| 2026-05-05 06:43 | 53.26968 | 9.07024 | 8254 ft | 315 kts | 33° |
| 2026-05-05 06:43 | 53.28664 | 9.09297 | 7820 ft | 312 kts | 49° |
| 2026-05-05 06:44 | 53.29827 | 9.12317 | 7418 ft | 308 kts | 61° |
| 2026-05-05 06:44 | 53.30757 | 9.15425 | 7103 ft | 296 kts | 63° |
| 2026-05-05 06:44 | 53.31625 | 9.18486 | 6831 ft | 280 kts | 63° |
| 2026-05-05 06:44 | 53.32419 | 9.21332 | 6569 ft | 263 kts | 64° |
| 2026-05-05 06:45 | 53.33157 | 9.23997 | 6307 ft | 248 kts | 63° |
| 2026-05-05 06:45 | 53.33881 | 9.26610 | 6036 ft | 244 kts | 63° |
| 2026-05-05 06:45 | 53.34578 | 9.29135 | 5786 ft | 242 kts | 63° |
| 2026-05-05 06:45 | 53.35276 | 9.31676 | 5600 ft | 240 kts | 63° |
| 2026-05-05 06:46 | 53.35968 | 9.34198 | 5418 ft | 239 kts | 64° |
| 2026-05-05 06:46 | 53.36656 | 9.36707 | 5280 ft | 238 kts | 64° |
| 2026-05-05 06:46 | 53.37353 | 9.39239 | 5152 ft | 237 kts | 64° |
| 2026-05-05 06:46 | 53.38041 | 9.41731 | 5021 ft | 236 kts | 64° |
| 2026-05-05 06:47 | 53.38727 | 9.44208 | 4958 ft | 235 kts | 64° |
| 2026-05-05 06:47 | 53.39418 | 9.46692 | 4929 ft | 236 kts | 64° |
| 2026-05-05 06:47 | 53.40037 | 9.49217 | 4781 ft | 235 kts | 68° |
| 2026-05-05 06:47 | 53.40597 | 9.51774 | 4624 ft | 233 kts | 69° |
| 2026-05-05 06:48 | 53.41188 | 9.54268 | 4458 ft | 232 kts | 62° |
| 2026-05-05 06:48 | 53.42017 | 9.56577 | 4299 ft | 231 kts | 52° |
| 2026-05-05 06:48 | 53.43045 | 9.58622 | 4145 ft | 229 kts | 46° |
| 2026-05-05 06:48 | 53.44127 | 9.60588 | 3994 ft | 228 kts | 46° |
| 2026-05-05 06:49 | 53.45177 | 9.62549 | 3840 ft | 227 kts | 47° |
| 2026-05-05 06:49 | 53.46199 | 9.64536 | 3704 ft | 225 kts | 49° |
| 2026-05-05 06:49 | 53.47183 | 9.66508 | 3569 ft | 217 kts | 50° |
| 2026-05-05 06:49 | 53.48133 | 9.68445 | 3436 ft | 209 kts | 51° |
| 2026-05-05 06:50 | 53.49038 | 9.70303 | 3301 ft | 202 kts | 51° |
| 2026-05-05 06:50 | 53.49922 | 9.72123 | 3175 ft | 201 kts | 51° |
| 2026-05-05 06:50 | 53.50804 | 9.73935 | 3047 ft | 200 kts | 51° |
| 2026-05-05 06:50 | 53.51685 | 9.75742 | 2970 ft | 198 kts | 51° |
| 2026-05-05 06:51 | 53.52559 | 9.77532 | 2938 ft | 199 kts | 50° |
| 2026-05-05 06:51 | 53.53425 | 9.79302 | 2774 ft | 192 kts | 50° |
| 2026-05-05 06:51 | 53.54256 | 9.80995 | 2538 ft | 186 kts | 50° |
| 2026-05-05 06:51 | 53.55068 | 9.82650 | 2259 ft | 183 kts | 50° |
| 2026-05-05 06:52 | 53.55865 | 9.84273 | 1989 ft | 175 kts | 50° |
| 2026-05-05 06:52 | 53.56598 | 9.85765 | 1760 ft | 160 kts | 50° |
| 2026-05-05 06:52 | 53.57281 | 9.87152 | 1530 ft | 147 kts | 50° |
| 2026-05-05 06:52 | 53.57896 | 9.88405 | 1318 ft | 132 kts | 50° |
| 2026-05-05 06:53 | 53.58456 | 9.89562 | 1148 ft | 126 kts | 50° |
| 2026-05-05 06:53 | 53.59012 | 9.90695 | 1012 ft | 126 kts | 50° |
| 2026-05-05 06:53 | 53.59581 | 9.91839 | 854 ft | 128 kts | 50° |
| 2026-05-05 06:53 | 53.60159 | 9.92995 | 657 ft | 127 kts | 50° |
| 2026-05-05 06:54 | 53.60715 | 9.94134 | 480 ft | 127 kts | 50° |
| 2026-05-05 06:54 | 53.61278 | 9.95271 | 309 ft | 126 kts | 50° |
| 2026-05-05 06:54 | 53.61839 | 9.96405 | 146 ft | 126 kts | 49° |
| 2026-05-05 06:54 | 53.62398 | 9.97523 | 64 ft | 117 kts | 49° |
| 2026-05-05 06:55 | 53.62835 | 9.98423 | 62 ft | 80 kts | 52° |
| 2026-05-05 06:55 | 53.63166 | 9.99088 | 62 ft | 69 kts | 51° |
| 2026-05-05 06:55 | 53.63434 | 9.99625 | 62 ft | 42 kts | 49° |
| 2026-05-05 06:55 | 53.63543 | 9.99849 | 62 ft | 18 kts | 52° |
| 2026-05-05 06:56 | 53.63566 | 10.00000 | 62 ft | 12 kts | 114° |
| 2026-05-05 06:56 | 53.63544 | 10.00027 | 62 ft | 6 kts | 149° |
| 2026-05-05 06:56 | 53.63494 | 10.00096 | 62 ft | 10 kts | 139° |
| 2026-05-05 06:56 | 53.63425 | 10.00155 | 62 ft | 12 kts | 173° |
| 2026-05-05 06:57 | 53.63335 | 10.00165 | 62 ft | 13 kts | 175° |
| 2026-05-05 06:57 | 53.63286 | 10.00221 | 62 ft | 9 kts | 84° |
| 2026-05-05 06:57 | 53.63294 | 10.00328 | 62 ft | 5 kts | 86° |
| 2026-05-05 06:57 | 53.63294 | 10.00355 | 62 ft | 0 kts | 86° |